KUOX/UOX METAR and TAF weather

Enter ICAO airport designator
Station Type Date Time Source
KUOX METAR 2019/06/17 14:55 UTC NOAA

KUOX 171455Z AUTO VRB03KT 10SM -DZ CLR 24/20 A3001 RMK AO2


Station Type Date Time Source
KUOX Decoded METAR 2019/06/17 14:55 UTC NOAA

Oxford, University-Oxford Airport, MS, United States (KUOX) 34-23-04N 089-32-08W
Jun 17, 2019 - 10:55 AM EDT / 2019.06.17 1455 UTC
Wind: Variable at 3 MPH (3 KT):0
Visibility: 10 mile(s):0
Sky conditions: clear
Weather: light drizzle
Temperature: 75 F (24 C)
Dew Point: 68 F (20 C)
Relative Humidity: 78%
Pressure (altimeter): 30.01 in. Hg (1016 hPa)
ob: KUOX 171455Z AUTO VRB03KT 10SM -DZ CLR 24/20 A3001 RMK AO2
cycle: 15

Station Type Date Time Source
KUOX TAF UTC NOAA

Error!

Example: see airport list